createdAt,value
2018-04-05T00:01:51.466Z,100132
2018-04-05T00:04:19.332Z,100125
2018-04-05T00:06:50.985Z,100122
2018-04-05T00:09:18.086Z,100126
2018-04-05T00:11:45.267Z,100123
2018-04-05T00:14:12.513Z,100116
2018-04-05T00:16:46.942Z,100118
2018-04-05T00:19:14.099Z,100116
2018-04-05T00:21:42.126Z,100114
2018-04-05T00:24:09.178Z,100110
2018-04-05T00:26:39.747Z,100111
2018-04-05T00:29:06.830Z,100106
2018-04-05T00:31:33.926Z,100103
2018-04-05T00:34:01.142Z,100103
2018-04-05T00:36:32.433Z,100098
2018-04-05T00:38:59.666Z,100087
2018-04-05T00:41:26.871Z,100089
2018-04-05T00:43:54.087Z,100078
2018-04-05T00:46:21.271Z,100074
2018-04-05T00:48:48.519Z,100075
2018-04-05T00:51:15.713Z,100073
2018-04-05T00:53:42.966Z,100072
2018-04-05T00:56:10.197Z,100068
2018-04-05T00:58:38.626Z,100067
2018-04-05T01:01:05.830Z,100068
2018-04-05T01:03:33.013Z,100067
2018-04-05T01:06:00.017Z,100064
2018-04-05T01:08:30.660Z,100061
2018-04-05T01:10:57.959Z,100064
2018-04-05T01:13:25.113Z,100062
2018-04-05T01:15:52.357Z,100064
2018-04-05T01:18:22.855Z,100064
2018-04-05T01:20:50.686Z,100064
2018-04-05T01:23:17.890Z,100060
2018-04-05T01:25:45.117Z,100065
2018-04-05T01:28:12.429Z,100055
2018-04-05T01:30:39.697Z,100055
2018-04-05T01:36:13.037Z,100057
2018-04-05T01:38:40.275Z,100059
2018-04-05T01:41:07.498Z,100059
2018-04-05T01:43:34.582Z,100047
2018-04-05T01:46:01.797Z,100043
2018-04-05T01:48:32.994Z,100042
2018-04-05T01:51:00.058Z,100043
2018-04-05T01:53:27.269Z,100040
2018-04-05T01:55:54.477Z,100039
2018-04-05T01:58:28.241Z,100044
2018-04-05T02:00:55.448Z,100039
2018-04-05T02:03:22.713Z,100037
2018-04-05T02:05:50.650Z,100038
2018-04-05T02:08:18.014Z,100043
2018-04-05T02:10:45.236Z,100039
2018-04-05T02:13:12.406Z,100040
2018-04-05T02:15:39.515Z,100041
2018-04-05T02:18:07.593Z,100042
2018-04-05T02:20:34.862Z,100044
2018-04-05T02:23:02.102Z,100041
2018-04-05T02:25:29.302Z,100039
2018-04-05T02:28:00.605Z,100037
2018-04-05T02:30:27.899Z,100039
2018-04-05T02:32:55.240Z,100042
2018-04-05T02:35:23.160Z,100042
2018-04-05T02:37:56.261Z,100038
2018-04-05T02:40:23.450Z,100038
2018-04-05T02:42:50.622Z,100042
2018-04-05T02:45:17.902Z,100037
2018-04-05T02:47:48.946Z,100036
2018-04-05T02:50:16.941Z,100035
2018-04-05T02:52:44.256Z,100030
2018-04-05T02:55:11.466Z,100030
2018-04-05T02:57:42.035Z,100029
2018-04-05T03:00:09.302Z,100026
2018-04-05T03:02:36.606Z,100022
2018-04-05T03:05:03.806Z,100028
2018-04-05T03:07:37.480Z,100029
2018-04-05T03:10:04.674Z,100026
2018-04-05T03:12:31.864Z,100022
2018-04-05T03:14:59.246Z,100027
2018-04-05T03:17:27.658Z,100025
2018-04-05T03:19:54.893Z,100021
2018-04-05T03:22:22.100Z,100021
2018-04-05T03:24:49.305Z,100018
2018-04-05T03:27:16.707Z,100016
2018-04-05T03:29:43.966Z,100015
2018-04-05T03:32:11.066Z,100017
2018-04-05T03:34:38.326Z,100023
2018-04-05T03:37:10.811Z,100026
2018-04-05T03:39:38.107Z,100027
2018-04-05T03:42:05.487Z,100026
2018-04-05T03:44:32.579Z,100024
2018-04-05T03:47:05.798Z,100025
2018-04-05T03:49:33.112Z,100025
2018-04-05T03:52:00.348Z,100022
2018-04-05T03:54:27.618Z,100024
2018-04-05T03:56:58.917Z,100021
2018-04-05T03:59:26.129Z,100024
2018-04-05T04:01:53.293Z,100033
2018-04-05T04:04:20.511Z,100029
2018-04-05T04:06:51.417Z,100028
2018-04-05T04:09:18.738Z,100031
2018-04-05T04:11:45.704Z,100029
2018-04-05T04:14:12.964Z,100025
2018-04-05T04:16:43.447Z,100028
2018-04-05T04:19:10.819Z,100026
2018-04-05T04:21:38.118Z,100027
2018-04-05T04:24:06.120Z,100028
2018-04-05T04:26:43.497Z,100023
2018-04-05T04:29:10.772Z,100025
2018-04-05T04:31:37.871Z,100023
2018-04-05T04:34:05.174Z,100028
2018-04-05T04:36:32.709Z,100028
2018-04-05T04:38:59.994Z,100022
2018-04-05T04:41:27.410Z,100019
2018-04-05T04:43:54.747Z,100023
2018-04-05T04:46:23.107Z,100020
2018-04-05T04:48:50.346Z,100020
2018-04-05T04:51:17.588Z,100015
2018-04-05T04:53:44.865Z,100021
2018-04-05T04:56:14.966Z,100024
2018-04-05T04:58:42.164Z,100023
2018-04-05T05:01:09.446Z,100025
2018-04-05T05:03:36.659Z,100022
2018-04-05T05:06:05.073Z,100023
2018-04-05T05:08:32.367Z,100013
2018-04-05T05:10:59.631Z,100021
2018-04-05T05:13:26.971Z,100018
2018-04-05T05:16:00.612Z,100019
2018-04-05T05:18:27.897Z,100023
2018-04-05T05:20:55.205Z,100018
2018-04-05T05:23:22.496Z,100017
2018-04-05T05:25:49.715Z,100020
2018-04-05T05:28:16.915Z,100022
2018-04-05T05:30:43.988Z,100017
2018-04-05T05:33:11.075Z,100016
2018-04-05T05:35:38.368Z,100022
2018-04-05T05:38:05.546Z,100008
2018-04-05T05:40:32.886Z,100007
2018-04-05T05:43:00.078Z,100013
2018-04-05T05:45:27.233Z,100012
2018-04-05T05:47:59.930Z,100011
2018-04-05T05:50:27.387Z,100013
2018-04-05T05:52:55.370Z,100013
2018-04-05T05:55:22.547Z,100003
2018-04-05T05:57:53.350Z,100000
2018-04-05T06:00:20.594Z,99999
2018-04-05T06:02:47.706Z,99999
2018-04-05T06:05:15.043Z,99994
2018-04-05T06:07:43.407Z,99996
2018-04-05T06:10:10.607Z,99996
2018-04-05T06:12:37.750Z,99998
2018-04-05T06:15:04.990Z,99995
2018-04-05T06:17:35.644Z,99993
2018-04-05T06:20:03.903Z,99988
2018-04-05T06:22:31.206Z,99990
2018-04-05T06:24:58.394Z,99988
2018-04-05T06:27:29.490Z,99986
2018-04-05T06:36:39.549Z,99981
2018-04-05T06:39:06.564Z,99985
2018-04-05T06:41:33.828Z,99987
2018-04-05T06:44:00.958Z,99982
2018-04-05T06:46:32.879Z,99981
2018-04-05T06:49:00.133Z,99978
2018-04-05T06:51:27.299Z,99979
2018-04-05T06:53:54.489Z,99974
2018-04-05T06:56:27.697Z,99980
2018-04-05T06:58:54.848Z,99983
2018-04-05T07:01:22.078Z,99982
2018-04-05T07:03:49.228Z,99975
2018-04-05T07:06:20.440Z,99979
2018-04-05T07:08:47.577Z,99978
2018-04-05T07:11:14.938Z,99978
2018-04-05T07:13:42.105Z,99971
2018-04-05T07:16:10.412Z,99970
2018-04-05T07:18:37.837Z,99963
2018-04-05T07:21:04.937Z,99968
2018-04-05T07:23:32.157Z,99969
2018-04-05T07:25:59.509Z,99963
2018-04-05T07:28:26.834Z,99966
2018-04-05T07:30:54.027Z,99966
2018-04-05T07:33:21.231Z,99966
2018-04-05T07:35:48.666Z,99972
2018-04-05T07:38:15.974Z,99966
2018-04-05T07:40:44.050Z,99974
2018-04-05T07:43:11.383Z,99980
2018-04-05T07:45:41.923Z,99971
2018-04-05T07:48:09.059Z,99968
2018-04-05T07:50:36.354Z,99966
2018-04-05T07:53:03.558Z,99969
2018-04-05T07:55:33.950Z,99969
2018-04-05T07:58:00.990Z,99967
2018-04-05T08:00:28.286Z,99966
2018-04-05T08:02:55.382Z,99960
2018-04-05T08:05:22.673Z,99949
2018-04-05T08:07:49.894Z,99949
2018-04-05T08:10:17.117Z,99945
2018-04-05T08:12:44.410Z,99945
2018-04-05T08:15:11.598Z,99946
2018-04-05T08:17:38.771Z,99939
2018-04-05T08:20:06.045Z,99931
2018-04-05T08:22:33.350Z,99927
2018-04-05T08:25:00.971Z,99934
2018-04-05T08:27:29.410Z,99929
2018-04-05T08:29:56.592Z,99925
2018-04-05T08:32:23.857Z,99921
2018-04-05T08:34:50.937Z,99923
2018-04-05T08:37:18.440Z,99924
2018-04-05T08:39:45.702Z,99918
2018-04-05T08:42:12.928Z,99914
2018-04-05T08:44:40.223Z,99914
2018-04-05T08:47:10.930Z,99911
2018-04-05T08:49:38.245Z,99913
2018-04-05T08:52:06.231Z,99915
2018-04-05T08:54:33.517Z,99915
2018-04-05T08:57:04.005Z,99913
2018-04-05T08:59:31.146Z,99914
2018-04-05T09:01:58.455Z,99908
2018-04-05T09:04:25.715Z,99905
2018-04-05T09:06:54.047Z,99895
2018-04-05T09:09:21.324Z,99898
2018-04-05T09:11:48.554Z,99896
2018-04-05T09:14:15.841Z,99892
2018-04-05T09:16:46.409Z,99892
2018-04-05T09:19:13.771Z,99888
2018-04-05T09:21:40.970Z,99890
2018-04-05T09:24:08.204Z,99891
2018-04-05T09:26:39.782Z,99888
2018-04-05T09:29:22.839Z,99874
2018-04-05T09:31:50.149Z,99865
2018-04-05T09:34:17.302Z,99870
2018-04-05T09:36:48.121Z,99876
2018-04-05T09:39:15.510Z,99873
2018-04-05T09:41:42.543Z,99869
2018-04-05T09:44:09.891Z,99878
2018-04-05T09:46:40.942Z,99874
2018-04-05T09:49:08.142Z,99864
2018-04-05T09:51:35.436Z,99862
2018-04-05T09:54:02.757Z,99863
2018-04-05T09:56:31.022Z,99851
2018-04-05T09:58:58.272Z,99849
2018-04-05T10:01:25.599Z,99847
2018-04-05T10:03:53.703Z,99844
2018-04-05T10:06:28.069Z,99838
2018-04-05T10:08:55.318Z,99834
2018-04-05T10:11:22.557Z,99834
2018-04-05T10:13:49.886Z,99834
2018-04-05T10:16:18.059Z,99827
2018-04-05T10:18:45.279Z,99821
2018-04-05T10:21:12.543Z,99823
2018-04-05T10:23:39.748Z,99821
2018-04-05T10:26:07.995Z,99822
2018-04-05T10:28:35.246Z,99813
2018-04-05T10:31:02.521Z,99819
2018-04-05T10:33:29.606Z,99812
2018-04-05T10:36:00.831Z,99817
2018-04-05T10:38:28.213Z,99813
2018-04-05T10:40:55.444Z,99816
2018-04-05T10:43:22.546Z,99816
2018-04-05T10:45:53.809Z,99811
2018-04-05T10:48:21.052Z,99811
2018-04-05T10:50:48.318Z,99806
2018-04-05T10:53:15.662Z,99807
2018-04-05T10:55:47.989Z,99799
2018-04-05T10:58:15.273Z,99796
2018-04-05T11:00:42.542Z,99794
2018-04-05T11:03:09.562Z,99799
2018-04-05T11:05:40.526Z,99800
2018-04-05T11:08:08.488Z,99793
2018-04-05T11:10:35.712Z,99797
2018-04-05T11:13:02.931Z,99796
2018-04-05T11:15:35.337Z,99789
2018-04-05T11:18:02.650Z,99782
2018-04-05T11:20:29.718Z,99792
2018-04-05T11:22:57.085Z,99784
2018-04-05T11:25:27.403Z,99790
2018-04-05T11:27:55.429Z,99780
2018-04-05T11:30:23.329Z,99778
2018-04-05T11:32:50.650Z,99778
2018-04-05T11:35:28.635Z,99784
2018-04-05T11:37:55.989Z,99772
2018-04-05T11:40:23.457Z,99768
2018-04-05T11:42:50.813Z,99771
2018-04-05T11:45:22.327Z,99761
2018-04-05T11:47:49.659Z,99760
2018-04-05T11:50:16.822Z,99758
2018-04-05T11:52:44.150Z,99756
2018-04-05T11:55:15.208Z,99756
2018-04-05T11:57:42.578Z,99755
2018-04-05T12:00:09.842Z,99750
2018-04-05T12:02:37.207Z,99760
2018-04-05T12:05:08.478Z,99746
2018-04-05T12:07:35.769Z,99750
2018-04-05T12:10:03.059Z,99746
2018-04-05T12:12:30.199Z,99743
2018-04-05T12:15:01.254Z,99734
2018-04-05T12:17:28.565Z,99731
2018-04-05T12:19:55.813Z,99738
2018-04-05T12:22:23.122Z,99728
2018-04-05T12:24:56.562Z,99730
2018-04-05T12:27:23.901Z,99724
2018-04-05T12:29:51.228Z,99733
2018-04-05T12:32:18.417Z,99735
2018-04-05T12:34:52.795Z,99740
2018-04-05T12:37:19.982Z,99733
2018-04-05T12:39:47.139Z,99739
2018-04-05T12:42:14.350Z,99726
2018-04-05T12:44:41.521Z,99721
2018-04-05T12:47:08.837Z,99728
2018-04-05T12:49:35.998Z,99731
2018-04-05T12:52:03.249Z,99727
2018-04-05T12:54:30.487Z,99720
2018-04-05T12:56:57.787Z,99721
2018-04-05T12:59:24.963Z,99728
2018-04-05T13:01:52.130Z,99714
2018-04-05T13:04:19.430Z,99716
2018-04-05T13:06:47.815Z,99716
2018-04-05T13:09:15.097Z,99725
2018-04-05T13:11:42.166Z,99719
2018-04-05T13:14:09.449Z,99723
2018-04-05T13:16:37.773Z,99721
2018-04-05T13:19:05.082Z,99723
2018-04-05T13:21:32.198Z,99720
2018-04-05T13:23:59.490Z,99718
2018-04-05T13:26:27.934Z,99715
2018-04-05T13:28:55.282Z,99718
2018-04-05T13:31:22.611Z,99719
2018-04-05T13:33:49.946Z,99715
2018-04-05T13:36:21.073Z,99709
2018-04-05T13:38:48.194Z,99720
2018-04-05T13:41:15.477Z,99714
2018-04-05T13:43:42.704Z,99710
2018-04-05T13:46:30.570Z,99719
2018-04-05T13:48:57.779Z,99716
2018-04-05T13:51:25.014Z,99716
2018-04-05T13:53:52.241Z,99714
2018-04-05T13:56:32.964Z,99723
2018-04-05T13:59:00.296Z,99714
2018-04-05T14:01:27.557Z,99715
2018-04-05T14:03:54.733Z,99710
2018-04-05T14:06:25.762Z,99707
2018-04-05T14:08:53.097Z,99716
2018-04-05T14:11:20.266Z,99726
2018-04-05T14:13:47.591Z,99714
2018-04-05T14:16:20.574Z,99710
2018-04-05T14:18:47.859Z,99718
2018-04-05T14:21:15.057Z,99718
2018-04-05T14:23:42.345Z,99712
2018-04-05T14:26:10.687Z,99711
2018-04-05T14:28:37.802Z,99714
2018-04-05T14:31:05.189Z,99721
2018-04-05T14:33:32.436Z,99710
2018-04-05T14:36:02.991Z,99712
2018-04-05T14:38:30.278Z,99708
2018-04-05T14:40:57.398Z,99705
2018-04-05T14:43:24.623Z,99705
2018-04-05T14:46:02.503Z,99704
2018-04-05T14:48:29.816Z,99697
2018-04-05T14:50:57.221Z,99700
2018-04-05T14:53:24.458Z,99694
2018-04-05T14:55:55.734Z,99696
2018-04-05T14:58:23.078Z,99698
2018-04-05T15:00:50.346Z,99698
2018-04-05T15:03:17.582Z,99705
2018-04-05T15:05:48.594Z,99731
2018-04-05T15:08:16.000Z,99729
2018-04-05T15:10:43.403Z,99723
2018-04-05T15:13:10.735Z,99721
2018-04-05T15:15:39.114Z,99718
2018-04-05T15:18:06.267Z,99712
2018-04-05T15:20:33.477Z,99722
2018-04-05T15:23:00.770Z,99724
2018-04-05T15:25:35.950Z,99713
2018-04-05T15:28:03.090Z,99721
2018-04-05T15:30:30.238Z,99729
2018-04-05T15:32:57.513Z,99723
2018-04-05T15:35:27.954Z,99722
2018-04-05T15:37:55.245Z,99722
2018-04-05T15:40:22.582Z,99713
2018-04-05T15:42:49.717Z,99706
2018-04-05T15:45:16.931Z,99703
2018-04-05T15:47:44.084Z,99696
2018-04-05T15:50:11.222Z,99692
2018-04-05T15:52:38.447Z,99692
2018-04-05T15:55:05.724Z,99686
2018-04-05T15:57:33.030Z,99683
2018-04-05T16:00:00.378Z,99688
2018-04-05T16:02:27.601Z,99689
2018-04-05T16:04:54.877Z,99681
2018-04-05T16:07:22.217Z,99686
2018-04-05T16:09:49.463Z,99674
2018-04-05T16:12:16.730Z,99675
2018-04-05T16:14:47.797Z,99680
2018-04-05T16:17:15.026Z,99682
2018-04-05T16:19:42.404Z,99682
2018-04-05T16:22:09.729Z,99686
2018-04-05T16:24:38.110Z,99682
2018-04-05T16:27:05.344Z,99687
2018-04-05T16:29:32.669Z,99686
2018-04-05T16:31:59.913Z,99694
2018-04-05T16:34:30.769Z,99691
2018-04-05T16:36:58.062Z,99690
2018-04-05T16:39:25.360Z,99692
2018-04-05T16:41:52.678Z,99690
2018-04-05T16:44:24.459Z,99692
2018-04-05T16:46:51.738Z,99697
2018-04-05T16:49:18.926Z,99699
2018-04-05T16:51:46.125Z,99699
2018-04-05T16:54:17.135Z,99704
2018-04-05T16:56:44.476Z,99704
2018-04-05T16:59:11.758Z,99710
2018-04-05T17:01:39.092Z,99693
2018-04-05T17:04:09.988Z,99703
2018-04-05T17:06:38.241Z,99704
2018-04-05T17:09:05.452Z,99708
2018-04-05T17:11:32.707Z,99710
2018-04-05T17:14:03.499Z,99711
2018-04-05T17:16:30.679Z,99709
2018-04-05T17:18:57.931Z,99718
2018-04-05T17:21:24.993Z,99719
2018-04-05T17:23:52.215Z,99722
2018-04-05T17:26:19.647Z,99726
2018-04-05T17:28:46.990Z,99728
2018-04-05T17:31:14.308Z,99731
2018-04-05T17:33:41.561Z,99738
2018-04-05T17:36:08.947Z,99734
2018-04-05T17:38:36.525Z,99742
2018-04-05T17:41:04.647Z,99737
2018-04-05T17:43:32.760Z,99735
2018-04-05T17:46:01.090Z,99739
2018-04-05T17:48:28.414Z,99742
2018-04-05T17:50:55.848Z,99742
2018-04-05T17:53:23.156Z,99739
2018-04-05T17:55:54.529Z,99739
2018-04-05T17:58:21.832Z,99738
2018-04-05T18:00:49.221Z,99734
2018-04-05T18:03:16.327Z,99742
2018-04-05T18:05:48.840Z,99742
2018-04-05T18:08:16.324Z,99743
2018-04-05T18:13:32.307Z,99738
2018-04-05T18:16:00.863Z,99743
2018-04-05T18:18:28.279Z,99740
2018-04-05T18:20:55.623Z,99740
2018-04-05T18:23:22.923Z,99737
2018-04-05T18:25:50.214Z,99746
2018-04-05T18:28:17.540Z,99744
2018-04-05T18:30:44.823Z,99743
2018-04-05T18:33:12.153Z,99743
2018-04-05T18:35:39.491Z,99746
2018-04-05T18:38:06.717Z,99743
2018-04-05T18:40:33.971Z,99744
2018-04-05T18:43:01.487Z,99742
2018-04-05T18:45:28.792Z,99745
2018-04-05T18:47:56.075Z,99744
2018-04-05T18:50:23.430Z,99739
2018-04-05T18:52:50.699Z,99745
2018-04-05T18:55:19.242Z,99746
2018-04-05T18:57:46.406Z,99746
2018-04-05T19:00:13.561Z,99747
2018-04-05T19:02:40.757Z,99748
2018-04-05T19:05:08.153Z,99750
2018-04-05T19:07:35.493Z,99748
2018-04-05T19:10:02.826Z,99748
2018-04-05T19:12:30.166Z,99747
2018-04-05T19:14:57.671Z,99745
2018-04-05T19:17:28.001Z,99743
2018-04-05T19:19:55.791Z,99737
2018-04-05T19:22:36.363Z,99744
2018-04-05T19:25:04.304Z,99737
2018-04-05T19:27:31.994Z,99737
2018-04-05T19:29:59.726Z,99733
2018-04-05T19:32:27.085Z,99727
2018-04-05T19:34:55.827Z,99726
2018-04-05T19:37:23.112Z,99721
2018-04-05T19:39:50.388Z,99724
2018-04-05T19:42:18.568Z,99726
2018-04-05T19:44:47.478Z,99722
2018-04-05T19:47:14.580Z,99728
2018-04-05T19:49:41.973Z,99719
2018-04-05T19:52:09.320Z,99719
2018-04-05T19:54:37.790Z,99720
2018-04-05T19:57:05.239Z,99723
2018-04-05T19:59:37.067Z,99725
2018-04-05T20:02:11.458Z,99726
2018-04-05T20:04:39.844Z,99731
2018-04-05T20:07:07.507Z,99729
2018-04-05T20:09:34.585Z,99731
2018-04-05T20:12:01.707Z,99731
2018-04-05T20:14:29.141Z,99728
2018-04-05T20:16:57.104Z,99724
2018-04-05T20:19:25.222Z,99729
2018-04-05T20:21:52.509Z,99731
2018-04-05T20:24:20.054Z,99735
2018-04-05T20:26:48.340Z,99734
2018-04-05T20:29:16.352Z,99730
2018-04-05T20:31:43.939Z,99729
2018-04-05T20:34:11.499Z,99729
2018-04-05T20:36:38.857Z,99732
2018-04-05T20:39:07.096Z,99728
2018-04-05T20:41:34.494Z,99729
2018-04-05T20:44:02.276Z,99736
2018-04-05T20:46:29.439Z,99741
2018-04-05T20:48:56.661Z,99738
2018-04-05T20:51:24.218Z,99737
2018-04-05T20:53:51.534Z,99734
2018-04-05T20:56:18.911Z,99732
2018-04-05T20:58:46.294Z,99731
2018-04-05T21:01:13.334Z,99726
2018-04-05T21:03:40.772Z,99727
2018-04-05T21:06:08.028Z,99721
2018-04-05T21:08:35.349Z,99722
2018-04-05T21:11:02.650Z,99720
2018-04-05T21:13:33.583Z,99727
2018-04-05T21:16:00.895Z,99727
2018-04-05T21:18:28.144Z,99733
2018-04-05T21:20:55.518Z,99737
2018-04-05T21:23:23.177Z,99729
2018-04-05T21:25:53.805Z,99736
2018-04-05T21:28:21.180Z,99732
2018-04-05T21:30:49.038Z,99742
2018-04-05T21:33:16.249Z,99742
2018-04-05T21:35:43.490Z,99735
2018-04-05T21:38:11.485Z,99742
2018-04-05T21:40:39.114Z,99739
2018-04-05T21:43:06.335Z,99737
2018-04-05T21:45:39.570Z,99743
2018-04-05T21:48:06.843Z,99741
2018-04-05T21:50:34.201Z,99742
2018-04-05T21:53:01.410Z,99743
2018-04-05T21:55:29.833Z,99736
2018-04-05T21:58:00.560Z,99725
2018-04-05T22:00:27.799Z,99731
2018-04-05T22:02:54.871Z,99729
2018-04-05T22:05:22.124Z,99733
2018-04-05T22:07:49.409Z,99725
2018-04-05T22:10:16.557Z,99725
2018-04-05T22:12:43.873Z,99727
2018-04-05T22:15:11.105Z,99724
2018-04-05T22:17:38.888Z,99726
2018-04-05T22:20:05.969Z,99728
2018-04-05T22:22:33.226Z,99718
2018-04-05T22:25:00.766Z,99720
2018-04-05T22:27:27.995Z,99717
2018-04-05T22:29:55.127Z,99719
2018-04-05T22:32:22.411Z,99714
2018-04-05T22:34:56.022Z,99712
2018-04-05T22:37:23.178Z,99718
2018-04-05T22:39:50.408Z,99714
2018-04-05T22:42:18.568Z,99697
2018-04-05T22:44:49.597Z,99692
2018-04-05T22:47:16.881Z,99684
2018-04-05T22:49:44.026Z,99677
2018-04-05T22:52:11.143Z,99674
2018-04-05T22:54:41.691Z,99676
2018-04-05T22:57:08.941Z,99669
2018-04-05T22:59:36.097Z,99662
2018-04-05T23:02:03.225Z,99657
2018-04-05T23:04:33.873Z,99660
2018-04-05T23:07:01.140Z,99656
2018-04-05T23:09:28.737Z,99650
2018-04-05T23:11:56.053Z,99651
2018-04-05T23:14:24.321Z,99644
2018-04-05T23:16:51.495Z,99641
2018-04-05T23:19:18.825Z,99633
2018-04-05T23:21:46.154Z,99632
2018-04-05T23:24:14.414Z,99640
2018-04-05T23:26:45.702Z,99630
2018-04-05T23:29:12.889Z,99628
2018-04-05T23:31:40.117Z,99625
2018-04-05T23:34:07.565Z,99624
2018-04-05T23:36:34.836Z,99633
2018-04-05T23:39:02.014Z,99628
2018-04-05T23:41:29.278Z,99631
2018-04-05T23:43:57.586Z,99632
2018-04-05T23:46:24.847Z,99639
2018-04-05T23:48:52.174Z,99645
2018-04-05T23:51:19.399Z,99641
2018-04-05T23:53:50.233Z,99646
2018-04-05T23:56:17.413Z,99642
2018-04-05T23:58:44.735Z,99638
